sensor_id;sensor_type;location;lat;lon;timestamp;pressure;altitude;pressure_sealevel;temperature;humidity
46778;BME280;32536;47.128;8.746;2022-11-20T00:01:23;91152.94;;;8.43;55.40
46778;BME280;32536;47.128;8.746;2022-11-20T00:03:52;91144.91;;;8.47;54.96
46778;BME280;32536;47.128;8.746;2022-11-20T00:06:20;91157.06;;;8.52;54.96
46778;BME280;32536;47.128;8.746;2022-11-20T00:08:48;91150.16;;;8.54;55.33
46778;BME280;32536;47.128;8.746;2022-11-20T00:11:18;91155.41;;;8.61;55.13
46778;BME280;32536;47.128;8.746;2022-11-20T00:13:49;91164.47;;;8.68;55.13
46778;BME280;32536;47.128;8.746;2022-11-20T00:16:19;91162.84;;;8.74;55.22
46778;BME280;32536;47.128;8.746;2022-11-20T00:18:48;91167.41;;;8.77;55.16
46778;BME280;32536;47.128;8.746;2022-11-20T00:21:18;91174.19;;;8.81;55.13
46778;BME280;32536;47.128;8.746;2022-11-20T00:23:50;91177.56;;;8.86;54.88
46778;BME280;32536;47.128;8.746;2022-11-20T00:26:19;91172.59;;;8.88;54.74
46778;BME280;32536;47.128;8.746;2022-11-20T00:28:52;91166.84;;;8.89;55.07
46778;BME280;32536;47.128;8.746;2022-11-20T00:31:22;91177.47;;;8.93;54.86
46778;BME280;32536;47.128;8.746;2022-11-20T00:33:49;91173.69;;;8.90;54.89
46778;BME280;32536;47.128;8.746;2022-11-20T00:36:22;91174.09;;;8.89;54.88
46778;BME280;32536;47.128;8.746;2022-11-20T00:38:54;91171.75;;;8.91;54.81
46778;BME280;32536;47.128;8.746;2022-11-20T00:41:23;91169.44;;;8.93;55.05
46778;BME280;32536;47.128;8.746;2022-11-20T00:43:51;91171.72;;;8.94;55.27
46778;BME280;32536;47.128;8.746;2022-11-20T00:46:21;91176.31;;;8.94;55.10
46778;BME280;32536;47.128;8.746;2022-11-20T00:48:49;91184.31;;;8.94;55.17
46778;BME280;32536;47.128;8.746;2022-11-20T00:51:19;91177.50;;;8.89;55.50
46778;BME280;32536;47.128;8.746;2022-11-20T00:53:48;91180.19;;;8.89;55.20
46778;BME280;32536;47.128;8.746;2022-11-20T00:56:17;91179.03;;;8.90;55.18
46778;BME280;32536;47.128;8.746;2022-11-20T00:58:47;91177.47;;;8.93;55.07
46778;BME280;32536;47.128;8.746;2022-11-20T01:01:22;91188.09;;;8.96;55.00
46778;BME280;32536;47.128;8.746;2022-11-20T01:03:52;91179.63;;;9.02;54.99
46778;BME280;32536;47.128;8.746;2022-11-20T01:06:31;91183.13;;;8.99;54.94
46778;BME280;32536;47.128;8.746;2022-11-20T01:09:05;91186.16;;;8.97;55.00
46778;BME280;32536;47.128;8.746;2022-11-20T01:11:36;91180.81;;;8.97;54.79
46778;BME280;32536;47.128;8.746;2022-11-20T01:14:09;91184.72;;;8.92;55.01
46778;BME280;32536;47.128;8.746;2022-11-20T01:16:44;91191.28;;;8.88;54.96
46778;BME280;32536;47.128;8.746;2022-11-20T01:19:16;91183.28;;;8.88;55.15
46778;BME280;32536;47.128;8.746;2022-11-20T01:21:50;91186.34;;;8.86;55.17
46778;BME280;32536;47.128;8.746;2022-11-20T01:24:20;91191.28;;;8.88;55.28
46778;BME280;32536;47.128;8.746;2022-11-20T01:26:49;91197.31;;;8.92;55.13
46778;BME280;32536;47.128;8.746;2022-11-20T01:29:20;91196.09;;;8.96;54.85
46778;BME280;32536;47.128;8.746;2022-11-20T01:31:48;91197.22;;;8.99;54.65
46778;BME280;32536;47.128;8.746;2022-11-20T01:34:18;91204.06;;;9.00;54.69
46778;BME280;32536;47.128;8.746;2022-11-20T01:36:46;91205.22;;;8.99;54.38
46778;BME280;32536;47.128;8.746;2022-11-20T01:39:18;91201.09;;;8.94;54.33
46778;BME280;32536;47.128;8.746;2022-11-20T01:41:48;91210.25;;;8.93;54.38
46778;BME280;32536;47.128;8.746;2022-11-20T01:44:51;91212.28;;;8.86;54.38
46778;BME280;32536;47.128;8.746;2022-11-20T01:47:37;91209.38;;;8.76;54.65
46778;BME280;32536;47.128;8.746;2022-11-20T01:50:23;91209.91;;;8.64;54.92
46778;BME280;32536;47.128;8.746;2022-11-20T01:53:07;91208.09;;;8.57;54.89
46778;BME280;32536;47.128;8.746;2022-11-20T01:55:56;91215.84;;;8.48;54.69
46778;BME280;32536;47.128;8.746;2022-11-20T01:58:28;91207.94;;;8.37;54.82
46778;BME280;32536;47.128;8.746;2022-11-20T02:00:58;91220.28;;;8.24;54.87
46778;BME280;32536;47.128;8.746;2022-11-20T02:03:26;91216.25;;;8.12;55.63
46778;BME280;32536;47.128;8.746;2022-11-20T02:09:02;91209.97;;;7.95;55.29
46778;BME280;32536;47.128;8.746;2022-11-20T02:11:30;91209.63;;;7.89;55.55
46778;BME280;32536;47.128;8.746;2022-11-20T02:13:57;91212.69;;;7.88;55.64
46778;BME280;32536;47.128;8.746;2022-11-20T02:16:28;91211.97;;;7.83;55.75
46778;BME280;32536;47.128;8.746;2022-11-20T02:19:11;91209.28;;;7.83;56.18
46778;BME280;32536;47.128;8.746;2022-11-20T02:24:41;91210.78;;;7.88;55.37
46778;BME280;32536;47.128;8.746;2022-11-20T02:27:13;91215.72;;;7.90;55.35
46778;BME280;32536;47.128;8.746;2022-11-20T02:29:53;91209.59;;;7.93;55.59
46778;BME280;32536;47.128;8.746;2022-11-20T02:32:30;91214.94;;;7.93;55.27
46778;BME280;32536;47.128;8.746;2022-11-20T02:35:35;91215.72;;;7.90;55.61
46778;BME280;32536;47.128;8.746;2022-11-20T02:37:58;91216.06;;;7.92;55.33
46778;BME280;32536;47.128;8.746;2022-11-20T02:41:00;91201.63;;;7.89;55.26
46778;BME280;32536;47.128;8.746;2022-11-20T02:43:27;91214.56;;;7.91;54.48
46778;BME280;32536;47.128;8.746;2022-11-20T02:45:54;91209.25;;;7.87;55.27
46778;BME280;32536;47.128;8.746;2022-11-20T02:48:21;91206.28;;;7.81;54.71
46778;BME280;32536;47.128;8.746;2022-11-20T02:50:47;91205.97;;;7.76;55.49
46778;BME280;32536;47.128;8.746;2022-11-20T02:53:14;91207.09;;;7.75;55.23
46778;BME280;32536;47.128;8.746;2022-11-20T02:55:41;91212.41;;;7.78;54.90
46778;BME280;32536;47.128;8.746;2022-11-20T02:58:08;91204.38;;;7.82;55.03
46778;BME280;32536;47.128;8.746;2022-11-20T03:00:34;91205.88;;;7.83;54.85
46778;BME280;32536;47.128;8.746;2022-11-20T03:03:01;91209.66;;;7.85;55.25
46778;BME280;32536;47.128;8.746;2022-11-20T03:05:28;91206.22;;;7.89;54.88
46778;BME280;32536;47.128;8.746;2022-11-20T03:07:55;91212.25;;;7.93;55.45
46778;BME280;32536;47.128;8.746;2022-11-20T03:10:22;91211.84;;;7.94;54.71
46778;BME280;32536;47.128;8.746;2022-11-20T03:12:55;91218.66;;;7.99;54.99
46778;BME280;32536;47.128;8.746;2022-11-20T03:15:23;91213.66;;;8.05;54.60
46778;BME280;32536;47.128;8.746;2022-11-20T03:17:53;91207.88;;;8.10;54.84
46778;BME280;32536;47.128;8.746;2022-11-20T03:20:21;91200.59;;;8.14;54.86
46778;BME280;32536;47.128;8.746;2022-11-20T03:22:48;91206.28;;;8.16;55.17
46778;BME280;32536;47.128;8.746;2022-11-20T03:25:15;91206.25;;;8.20;54.96
46778;BME280;32536;47.128;8.746;2022-11-20T03:27:42;91201.97;;;8.26;54.79
46778;BME280;32536;47.128;8.746;2022-11-20T03:30:09;91204.25;;;8.27;54.85
46778;BME280;32536;47.128;8.746;2022-11-20T03:32:36;91206.88;;;8.31;55.17
46778;BME280;32536;47.128;8.746;2022-11-20T03:35:03;91214.16;;;8.27;54.51
46778;BME280;32536;47.128;8.746;2022-11-20T03:37:31;91218.47;;;8.17;54.52
46778;BME280;32536;47.128;8.746;2022-11-20T03:39:58;91223.19;;;8.06;54.61
46778;BME280;32536;47.128;8.746;2022-11-20T03:42:25;91221.81;;;7.90;54.78
46778;BME280;32536;47.128;8.746;2022-11-20T03:45:10;91230.69;;;7.76;54.33
46778;BME280;32536;47.128;8.746;2022-11-20T03:47:41;91226.28;;;7.62;54.47
46778;BME280;32536;47.128;8.746;2022-11-20T03:50:10;91218.34;;;7.55;54.43
46778;BME280;32536;47.128;8.746;2022-11-20T03:52:39;91236.28;;;7.51;54.75
46778;BME280;32536;47.128;8.746;2022-11-20T03:55:07;91229.88;;;7.45;54.31
46778;BME280;32536;47.128;8.746;2022-11-20T03:57:33;91235.59;;;7.40;54.42
46778;BME280;32536;47.128;8.746;2022-11-20T04:00:00;91240.25;;;7.32;54.79
46778;BME280;32536;47.128;8.746;2022-11-20T04:02:27;91231.88;;;7.30;54.46
46778;BME280;32536;47.128;8.746;2022-11-20T04:04:54;91232.66;;;7.30;54.99
46778;BME280;32536;47.128;8.746;2022-11-20T04:07:21;91233.03;;;7.32;54.84
46778;BME280;32536;47.128;8.746;2022-11-20T04:09:47;91230.72;;;7.31;55.27
46778;BME280;32536;47.128;8.746;2022-11-20T04:12:14;91241.75;;;7.33;54.53
46778;BME280;32536;47.128;8.746;2022-11-20T04:14:41;91237.53;;;7.39;55.06
46778;BME280;32536;47.128;8.746;2022-11-20T04:17:08;91234.06;;;7.42;54.37
46778;BME280;32536;47.128;8.746;2022-11-20T04:19:34;91237.84;;;7.45;54.34
46778;BME280;32536;47.128;8.746;2022-11-20T04:22:01;91230.22;;;7.47;54.91
46778;BME280;32536;47.128;8.746;2022-11-20T04:24:28;91233.25;;;7.49;54.90
46778;BME280;32536;47.128;8.746;2022-11-20T04:26:55;91229.44;;;7.50;55.23
46778;BME280;32536;47.128;8.746;2022-11-20T04:29:21;91226.00;;;7.49;55.27
46778;BME280;32536;47.128;8.746;2022-11-20T04:31:48;91230.94;;;7.51;55.36
46778;BME280;32536;47.128;8.746;2022-11-20T04:34:15;91224.06;;;7.53;55.66
46778;BME280;32536;47.128;8.746;2022-11-20T04:36:42;91229.75;;;7.59;55.35
46778;BME280;32536;47.128;8.746;2022-11-20T04:39:12;91223.19;;;7.64;54.89
46778;BME280;32536;47.128;8.746;2022-11-20T04:41:40;91223.13;;;7.71;54.60
46778;BME280;32536;47.128;8.746;2022-11-20T04:44:07;91221.22;;;7.75;54.96
46778;BME280;32536;47.128;8.746;2022-11-20T04:46:42;91214.34;;;7.74;54.92
46778;BME280;32536;47.128;8.746;2022-11-20T04:49:10;91216.25;;;7.74;54.75
46778;BME280;32536;47.128;8.746;2022-11-20T04:51:39;91220.09;;;7.73;54.93
46778;BME280;32536;47.128;8.746;2022-11-20T04:54:06;91222.00;;;7.72;54.86
46778;BME280;32536;47.128;8.746;2022-11-20T04:56:33;91218.91;;;7.74;54.92
46778;BME280;32536;47.128;8.746;2022-11-20T04:59:01;91218.91;;;7.74;55.35
46778;BME280;32536;47.128;8.746;2022-11-20T05:01:29;91222.00;;;7.72;55.12
46778;BME280;32536;47.128;8.746;2022-11-20T05:03:55;91216.66;;;7.72;55.76
46778;BME280;32536;47.128;8.746;2022-11-20T05:06:22;91220.47;;;7.71;55.85
46778;BME280;32536;47.128;8.746;2022-11-20T05:08:49;91219.72;;;7.71;55.65
46778;BME280;32536;47.128;8.746;2022-11-20T05:11:18;91226.59;;;7.68;55.58
46778;BME280;32536;47.128;8.746;2022-11-20T05:13:47;91220.84;;;7.73;55.93
46778;BME280;32536;47.128;8.746;2022-11-20T05:16:20;91221.56;;;7.77;55.56
46778;BME280;32536;47.128;8.746;2022-11-20T05:18:48;91223.84;;;7.79;55.98
46778;BME280;32536;47.128;8.746;2022-11-20T05:21:16;91222.66;;;7.80;55.55
46778;BME280;32536;47.128;8.746;2022-11-20T05:23:44;91221.50;;;7.81;55.81
46778;BME280;32536;47.128;8.746;2022-11-20T05:26:22;91229.88;;;7.83;56.00
46778;BME280;32536;47.128;8.746;2022-11-20T05:28:50;91228.28;;;7.89;55.89
46778;BME280;32536;47.128;8.746;2022-11-20T05:31:24;91224.84;;;7.92;55.61
46778;BME280;32536;47.128;8.746;2022-11-20T05:33:51;91230.91;;;7.96;55.56
46778;BME280;32536;47.128;8.746;2022-11-20T05:36:18;91238.44;;;8.01;55.08
46778;BME280;32536;47.128;8.746;2022-11-20T05:38:46;91242.22;;;8.04;55.05
46778;BME280;32536;47.128;8.746;2022-11-20T05:41:15;91244.91;;;8.04;54.80
46778;BME280;32536;47.128;8.746;2022-11-20T05:43:44;91242.22;;;8.04;54.60
46778;BME280;32536;47.128;8.746;2022-11-20T05:46:14;91240.34;;;8.05;54.79
46778;BME280;32536;47.128;8.746;2022-11-20T05:48:44;91236.56;;;8.02;54.68
46778;BME280;32536;47.128;8.746;2022-11-20T05:51:13;91243.03;;;8.01;54.50
46778;BME280;32536;47.128;8.746;2022-11-20T05:53:42;91244.22;;;7.96;55.04
46778;BME280;32536;47.128;8.746;2022-11-20T05:56:11;91243.06;;;7.97;55.19
46778;BME280;32536;47.128;8.746;2022-11-20T05:58:40;91246.84;;;8.00;54.85
46778;BME280;32536;47.128;8.746;2022-11-20T06:01:17;91245.75;;;7.97;54.41
46778;BME280;32536;47.128;8.746;2022-11-20T06:03:46;91240.81;;;7.96;54.43
46778;BME280;32536;47.128;8.746;2022-11-20T06:06:16;91249.59;;;7.93;54.81
46778;BME280;32536;47.128;8.746;2022-11-20T06:08:44;91248.13;;;7.88;54.32
46778;BME280;32536;47.128;8.746;2022-11-20T06:11:12;91239.00;;;7.85;54.72
46778;BME280;32536;47.128;8.746;2022-11-20T06:13:40;91234.09;;;7.80;54.80
46778;BME280;32536;47.128;8.746;2022-11-20T06:16:08;91235.25;;;7.79;54.96
46778;BME280;32536;47.128;8.746;2022-11-20T06:18:35;91234.50;;;7.79;54.64
46778;BME280;32536;47.128;8.746;2022-11-20T06:21:05;91231.47;;;7.77;54.59
46778;BME280;32536;47.128;8.746;2022-11-20T06:23:34;91233.03;;;7.74;54.65
46778;BME280;32536;47.128;8.746;2022-11-20T06:26:13;91237.59;;;7.74;54.54
46778;BME280;32536;47.128;8.746;2022-11-20T06:28:41;91235.66;;;7.78;55.33
46778;BME280;32536;47.128;8.746;2022-11-20T06:31:11;91243.97;;;7.83;54.53
46778;BME280;32536;47.128;8.746;2022-11-20T06:33:39;91250.03;;;7.88;54.66
46778;BME280;32536;47.128;8.746;2022-11-20T06:36:07;91249.28;;;7.83;54.42
46778;BME280;32536;47.128;8.746;2022-11-20T06:38:35;91248.22;;;7.77;54.60
46778;BME280;32536;47.128;8.746;2022-11-20T06:41:17;91251.75;;;7.67;55.02
46778;BME280;32536;47.128;8.746;2022-11-20T06:43:45;91251.41;;;7.61;55.00
46778;BME280;32536;47.128;8.746;2022-11-20T06:46:14;91256.06;;;7.53;55.16
46778;BME280;32536;47.128;8.746;2022-11-20T06:48:46;91258.03;;;7.46;55.58
46778;BME280;32536;47.128;8.746;2022-11-20T06:51:13;91262.63;;;7.42;55.96
46778;BME280;32536;47.128;8.746;2022-11-20T06:53:40;91260.75;;;7.39;55.70
46778;BME280;32536;47.128;8.746;2022-11-20T06:56:07;91266.81;;;7.39;56.36
46778;BME280;32536;47.128;8.746;2022-11-20T06:58:35;91275.19;;;7.41;55.98
46778;BME280;32536;47.128;8.746;2022-11-20T07:01:09;91279.34;;;7.46;55.87
46778;BME280;32536;47.128;8.746;2022-11-20T07:03:37;91279.69;;;7.51;56.37
46778;BME280;32536;47.128;8.746;2022-11-20T07:06:05;91281.19;;;7.52;55.80
46778;BME280;32536;47.128;8.746;2022-11-20T07:08:33;91287.25;;;7.57;55.82
46778;BME280;32536;47.128;8.746;2022-11-20T07:11:02;91283.84;;;7.56;55.31
46778;BME280;32536;47.128;8.746;2022-11-20T07:13:31;91288.03;;;7.53;55.25
46778;BME280;32536;47.128;8.746;2022-11-20T07:16:02;91278.59;;;7.42;55.30
46778;BME280;32536;47.128;8.746;2022-11-20T07:18:31;91292.31;;;7.44;54.98
46778;BME280;32536;47.128;8.746;2022-11-20T07:21:05;91298.81;;;7.39;55.02
46778;BME280;32536;47.128;8.746;2022-11-20T07:23:34;91300.75;;;7.35;55.11
46778;BME280;32536;47.128;8.746;2022-11-20T07:26:09;91290.88;;;7.28;54.58
46778;BME280;32536;47.128;8.746;2022-11-20T07:28:36;91290.59;;;7.19;55.10
46778;BME280;32536;47.128;8.746;2022-11-20T07:31:04;91300.84;;;7.20;55.62
46778;BME280;32536;47.128;8.746;2022-11-20T07:33:32;91299.25;;;7.30;55.00
46778;BME280;32536;47.128;8.746;2022-11-20T07:35:59;91290.41;;;7.41;55.34
46778;BME280;32536;47.128;8.746;2022-11-20T07:38:27;91300.69;;;7.46;54.64
46778;BME280;32536;47.128;8.746;2022-11-20T07:41:17;91304.50;;;7.41;54.78
46778;BME280;32536;47.128;8.746;2022-11-20T07:43:43;91302.59;;;7.42;54.83
46778;BME280;32536;47.128;8.746;2022-11-20T07:46:10;91306.78;;;7.43;54.69
46778;BME280;32536;47.128;8.746;2022-11-20T07:48:37;91310.22;;;7.40;55.19
46778;BME280;32536;47.128;8.746;2022-11-20T07:51:04;91307.25;;;7.30;54.83
46778;BME280;32536;47.128;8.746;2022-11-20T07:53:30;91312.94;;;7.32;54.61
46778;BME280;32536;47.128;8.746;2022-11-20T07:56:01;91307.97;;;7.34;54.80
46778;BME280;32536;47.128;8.746;2022-11-20T07:58:29;91303.41;;;7.39;55.48
46778;BME280;32536;47.128;8.746;2022-11-20T08:01:03;91315.94;;;7.38;55.45
46778;BME280;32536;47.128;8.746;2022-11-20T08:03:31;91310.59;;;7.42;54.83
46778;BME280;32536;47.128;8.746;2022-11-20T08:05:59;91310.19;;;7.43;55.29
46778;BME280;32536;47.128;8.746;2022-11-20T08:08:27;91308.66;;;7.46;55.08
46778;BME280;32536;47.128;8.746;2022-11-20T08:10:56;91303.72;;;7.44;55.09
46778;BME280;32536;47.128;8.746;2022-11-20T08:13:43;91309.84;;;7.41;54.64
46778;BME280;32536;47.128;8.746;2022-11-20T08:16:28;91316.25;;;7.47;54.96
46778;BME280;32536;47.128;8.746;2022-11-20T08:18:55;91309.34;;;7.57;54.73
46778;BME280;32536;47.128;8.746;2022-11-20T08:21:22;91314.25;;;7.62;54.86
46778;BME280;32536;47.128;8.746;2022-11-20T08:23:49;91318.41;;;7.67;54.67
46778;BME280;32536;47.128;8.746;2022-11-20T08:26:16;91313.44;;;7.69;54.26
46778;BME280;32536;47.128;8.746;2022-11-20T08:28:43;91312.66;;;7.72;54.88
46778;BME280;32536;47.128;8.746;2022-11-20T08:31:10;91319.91;;;7.72;54.50
46778;BME280;32536;47.128;8.746;2022-11-20T08:33:36;91316.44;;;7.71;54.89
46778;BME280;32536;47.128;8.746;2022-11-20T08:36:04;91314.22;;;7.66;54.60
46778;BME280;32536;47.128;8.746;2022-11-20T08:38:32;91326.44;;;7.60;54.67
46778;BME280;32536;47.128;8.746;2022-11-20T08:41:21;91322.66;;;7.57;54.89
46778;BME280;32536;47.128;8.746;2022-11-20T08:43:56;91324.88;;;7.66;54.84
46778;BME280;32536;47.128;8.746;2022-11-20T08:46:25;91327.91;;;7.72;54.41
46778;BME280;32536;47.128;8.746;2022-11-20T08:48:59;91327.84;;;7.79;54.78
46778;BME280;32536;47.128;8.746;2022-11-20T08:51:26;91331.19;;;7.87;54.77
46778;BME280;32536;47.128;8.746;2022-11-20T08:53:53;91333.78;;;7.97;54.80
46778;BME280;32536;47.128;8.746;2022-11-20T08:56:20;91332.59;;;8.02;54.50
46778;BME280;32536;47.128;8.746;2022-11-20T08:58:47;91331.41;;;8.03;54.00
46778;BME280;32536;47.128;8.746;2022-11-20T09:01:15;91334.84;;;8.04;54.34
46778;BME280;32536;47.128;8.746;2022-11-20T09:03:42;91340.16;;;8.07;54.21
46778;BME280;32536;47.128;8.746;2022-11-20T09:06:09;91331.75;;;8.09;54.17
46778;BME280;32536;47.128;8.746;2022-11-20T09:08:35;91329.06;;;8.12;54.44
46778;BME280;32536;47.128;8.746;2022-11-20T09:11:02;91334.72;;;8.18;54.20
46778;BME280;32536;47.128;8.746;2022-11-20T09:13:31;91335.81;;;8.24;54.39
46778;BME280;32536;47.128;8.746;2022-11-20T09:16:04;91336.88;;;8.30;53.34
46778;BME280;32536;47.128;8.746;2022-11-20T09:18:34;91331.16;;;8.32;54.20
46778;BME280;32536;47.128;8.746;2022-11-20T09:21:06;91334.22;;;8.30;53.41
46778;BME280;32536;47.128;8.746;2022-11-20T09:23:37;91334.66;;;8.25;53.93
46778;BME280;32536;47.128;8.746;2022-11-20T09:26:08;91336.59;;;8.21;53.88
46778;BME280;32536;47.128;8.746;2022-11-20T09:28:39;91336.25;;;8.19;54.11
46778;BME280;32536;47.128;8.746;2022-11-20T09:31:07;91334.72;;;8.18;54.10
46778;BME280;32536;47.128;8.746;2022-11-20T09:33:35;91337.00;;;8.20;53.97
46778;BME280;32536;47.128;8.746;2022-11-20T09:36:02;91332.81;;;8.18;53.24
46778;BME280;32536;47.128;8.746;2022-11-20T09:38:29;91333.22;;;8.17;54.29
46778;BME280;32536;47.128;8.746;2022-11-20T09:47:11;91337.44;;;8.14;53.28
46778;BME280;32536;47.128;8.746;2022-11-20T09:56:01;91336.63;;;8.17;53.49
46778;BME280;32536;47.128;8.746;2022-11-20T09:58:39;91342.03;;;8.10;52.20
46778;BME280;32536;47.128;8.746;2022-11-20T10:01:32;91343.94;;;8.10;52.16
46778;BME280;32536;47.128;8.746;2022-11-20T10:04:09;91354.19;;;8.15;53.23
46778;BME280;32536;47.128;8.746;2022-11-20T10:07:02;91343.06;;;8.20;52.81
46778;BME280;32536;47.128;8.746;2022-11-20T10:09:52;91342.31;;;8.20;50.85
46778;BME280;32536;47.128;8.746;2022-11-20T10:19:13;91338.81;;;8.26;52.02
46778;BME280;32536;47.128;8.746;2022-11-20T10:25:16;91330.75;;;8.33;50.62
46778;BME280;32536;47.128;8.746;2022-11-20T10:30:43;91321.91;;;8.40;52.58
46778;BME280;32536;47.128;8.746;2022-11-20T10:33:22;91325.72;;;8.39;50.67
46778;BME280;32536;47.128;8.746;2022-11-20T10:35:55;91322.31;;;8.39;52.14
46778;BME280;32536;47.128;8.746;2022-11-20T10:38:43;91325.34;;;8.41;52.14
46778;BME280;32536;47.128;8.746;2022-11-20T10:41:41;91315.03;;;8.43;51.80
46778;BME280;32536;47.128;8.746;2022-11-20T10:44:16;91318.44;;;8.47;52.64
46778;BME280;32536;47.128;8.746;2022-11-20T10:47:04;91310.34;;;8.54;52.86
46778;BME280;32536;47.128;8.746;2022-11-20T10:49:48;91313.38;;;8.56;51.22
46778;BME280;32536;47.128;8.746;2022-11-20T11:01:20;91301.13;;;8.59;51.49
46778;BME280;32536;47.128;8.746;2022-11-20T11:03:50;91291.97;;;8.60;51.85
46778;BME280;32536;47.128;8.746;2022-11-20T11:06:34;91303.41;;;8.60;51.69
46778;BME280;32536;47.128;8.746;2022-11-20T11:09:20;91293.50;;;8.61;48.28
46778;BME280;32536;47.128;8.746;2022-11-20T11:11:51;91294.25;;;8.61;52.20
46778;BME280;32536;47.128;8.746;2022-11-20T11:14:18;91290.00;;;8.64;52.70
46778;BME280;32536;47.128;8.746;2022-11-20T11:16:55;91294.25;;;8.61;51.48
46778;BME280;32536;47.128;8.746;2022-11-20T11:19:23;91287.00;;;8.62;52.06
46778;BME280;32536;47.128;8.746;2022-11-20T11:21:55;91288.94;;;8.58;51.04
46778;BME280;32536;47.128;8.746;2022-11-20T11:24:23;91286.63;;;8.60;50.09
46778;BME280;32536;47.128;8.746;2022-11-20T11:27:01;91285.06;;;8.62;51.96
46778;BME280;32536;47.128;8.746;2022-11-20T11:29:30;91282.31;;;8.70;50.29
46778;BME280;32536;47.128;8.746;2022-11-20T11:32:15;91262.06;;;8.72;50.24
46778;BME280;32536;47.128;8.746;2022-11-20T11:35:02;91257.47;;;8.76;50.72
46778;BME280;32536;47.128;8.746;2022-11-20T11:37:36;91254.38;;;8.78;50.77
46778;BME280;32536;47.128;8.746;2022-11-20T11:40:05;91255.47;;;8.80;52.03
46778;BME280;32536;47.128;8.746;2022-11-20T11:42:34;91251.94;;;8.87;52.56
46778;BME280;32536;47.128;8.746;2022-11-20T11:45:11;91253.41;;;8.92;52.44
46778;BME280;32536;47.128;8.746;2022-11-20T11:52:46;91236.88;;;9.01;52.13
46778;BME280;32536;47.128;8.746;2022-11-20T11:58:48;91229.91;;;9.07;50.11
46778;BME280;32536;47.128;8.746;2022-11-20T12:07:25;91231.91;;;9.03;48.57
46778;BME280;32536;47.128;8.746;2022-11-20T12:10:02;91234.97;;;9.01;51.33
46778;BME280;32536;47.128;8.746;2022-11-20T12:12:37;91233.88;;;8.99;48.96
46778;BME280;32536;47.128;8.746;2022-11-20T12:15:11;91225.84;;;8.99;51.17
46778;BME280;32536;47.128;8.746;2022-11-20T12:17:38;91219.69;;;9.02;47.86
46778;BME280;32536;47.128;8.746;2022-11-20T12:20:12;91210.16;;;9.01;49.97
46778;BME280;32536;47.128;8.746;2022-11-20T12:25:42;91207.94;;;8.95;49.98
46778;BME280;32536;47.128;8.746;2022-11-20T12:28:33;91203.81;;;8.91;48.09
46778;BME280;32536;47.128;8.746;2022-11-20T12:52:06;91186.69;;;8.88;47.34
46778;BME280;32536;47.128;8.746;2022-11-20T12:54:49;91179.44;;;8.89;50.40
46778;BME280;32536;47.128;8.746;2022-11-20T12:57:33;91176.66;;;8.96;50.11
46778;BME280;32536;47.128;8.746;2022-11-20T13:08:31;91169.53;;;9.37;49.12
46778;BME280;32536;47.128;8.746;2022-11-20T13:11:12;91169.06;;;9.42;49.89
46778;BME280;32536;47.128;8.746;2022-11-20T13:14:16;91154.88;;;9.45;47.06
46778;BME280;32536;47.128;8.746;2022-11-20T13:17:12;91157.06;;;9.50;48.22
46778;BME280;32536;47.128;8.746;2022-11-20T13:19:54;91155.09;;;9.54;46.94
46778;BME280;32536;47.128;8.746;2022-11-20T13:22:41;91148.56;;;9.55;49.63
46778;BME280;32536;47.128;8.746;2022-11-20T13:25:26;91148.03;;;9.64;50.55
46778;BME280;32536;47.128;8.746;2022-11-20T13:27:56;91144.78;;;9.76;51.03
46778;BME280;32536;47.128;8.746;2022-11-20T13:30:36;91145.38;;;9.84;50.88
46778;BME280;32536;47.128;8.746;2022-11-20T13:33:33;91144.56;;;9.87;49.21
46778;BME280;32536;47.128;8.746;2022-11-20T13:36:06;91140.94;;;9.98;50.68
46778;BME280;32536;47.128;8.746;2022-11-20T13:38:51;91154.44;;;10.10;51.12
46778;BME280;32536;47.128;8.746;2022-11-20T13:41:41;91139.50;;;10.13;46.70
46778;BME280;32536;47.128;8.746;2022-11-20T13:44:24;91148.88;;;10.21;49.03
46778;BME280;32536;47.128;8.746;2022-11-20T13:46:58;91138.38;;;10.31;50.74
46778;BME280;32536;47.128;8.746;2022-11-20T13:49:38;91139.44;;;10.33;44.91
46778;BME280;32536;47.128;8.746;2022-11-20T13:55:19;91142.88;;;10.34;47.94
46778;BME280;32536;47.128;8.746;2022-11-20T13:58:30;91134.16;;;10.30;46.17
46778;BME280;32536;47.128;8.746;2022-11-20T14:01:25;91127.81;;;10.23;46.25
46778;BME280;32536;47.128;8.746;2022-11-20T14:03:57;91128.38;;;10.15;49.38
46778;BME280;32536;47.128;8.746;2022-11-20T14:06:30;91125.91;;;10.04;48.16
46778;BME280;32536;47.128;8.746;2022-11-20T14:08:59;91125.69;;;9.94;49.29
46778;BME280;32536;47.128;8.746;2022-11-20T14:11:28;91118.56;;;9.88;49.71
46778;BME280;32536;47.128;8.746;2022-11-20T14:16:35;91114.16;;;9.77;47.80
46778;BME280;32536;47.128;8.746;2022-11-20T14:22:18;91111.22;;;9.72;47.39
46778;BME280;32536;47.128;8.746;2022-11-20T14:27:36;91102.84;;;9.70;50.19
46778;BME280;32536;47.128;8.746;2022-11-20T14:30:06;91107.84;;;9.68;50.07
46778;BME280;32536;47.128;8.746;2022-11-20T14:32:41;91098.13;;;9.57;50.32
46778;BME280;32536;47.128;8.746;2022-11-20T14:35:14;91092.91;;;9.50;48.66
46778;BME280;32536;47.128;8.746;2022-11-20T14:37:57;91099.84;;;9.48;50.61
46778;BME280;32536;47.128;8.746;2022-11-20T14:40:35;91101.41;;;9.45;49.47
46778;BME280;32536;47.128;8.746;2022-11-20T14:43:25;91099.84;;;9.48;49.10
46778;BME280;32536;47.128;8.746;2022-11-20T14:46:02;91102.16;;;9.45;50.19
46778;BME280;32536;47.128;8.746;2022-11-20T14:48:38;91105.19;;;9.48;50.44
46778;BME280;32536;47.128;8.746;2022-11-20T14:51:37;91101.59;;;9.54;49.98
46778;BME280;32536;47.128;8.746;2022-11-20T14:54:15;91104.56;;;9.60;50.74
46778;BME280;32536;47.128;8.746;2022-11-20T14:56:54;91103.81;;;9.59;49.87
46778;BME280;32536;47.128;8.746;2022-11-20T14:59:34;91101.16;;;9.59;50.28
46778;BME280;32536;47.128;8.746;2022-11-20T15:02:11;91101.16;;;9.59;50.60
46778;BME280;32536;47.128;8.746;2022-11-20T15:05:05;91107.31;;;9.56;49.45
46778;BME280;32536;47.128;8.746;2022-11-20T15:07:34;91098.13;;;9.57;50.99
46778;BME280;32536;47.128;8.746;2022-11-20T15:10:13;91096.59;;;9.56;50.20
46778;BME280;32536;47.128;8.746;2022-11-20T15:12:49;91091.94;;;9.60;50.56
46778;BME280;32536;47.128;8.746;2022-11-20T15:15:23;91091.63;;;9.58;49.23
46778;BME280;32536;47.128;8.746;2022-11-20T15:18:03;91083.91;;;9.60;51.10